Ajaccio, France

9:03 AM CEST on October 24, 2014 (GMT +0200)
Campo Dell' Oro | Change Station
CLOSE
Current Station
Airport
Location: Ajaccio,
Elevation: 30 ft
Nearby Weather Stations

Elev 30 ft 41.92 °N, 8.80 °E | Updated 33 minutes ago

Clear
Clear
50 °F
Feels Like 50 °F
N
8
Wind Variable Wind from NE

Today
High -- | Low -- °F
--% Chance of Precip.
Yesterday
High -- | Low -- °F
Precip. -- in
7:47 AM 6:30 PM
New Moon, 0% visible
Pressure 29.89 in
Visibility -9999.0 miles
Clouds
Dew Point 41 °F
Humidity 71%
Rainfall 0.00 in
Snow Depth Not available.
UV Not available.
Pollen Not available.
Air Quality Not available.
Flu Activity Not available.
METAR LFKJ 240630Z 05007KT CAVOK 10/05 Q1012 NOSIG

More Conditions Fewer Conditions

Pressure 29.89 in
Visibility -9999.0 miles
Clouds
Dew Point 41 °F
Humidity 71%
Rainfall 0.00 in
Snow Depth Not available.
UV Not available.
Pollen Not available.
Air Quality Not available.
Flu Activity Not available.
METAR LFKJ 240630Z 05007KT CAVOK 10/05 Q1012 NOSIG

More Conditions Fewer Conditions

10-Day Weather Forecast

Almanac

Astronomy

Oct. 24, 2014 Rise Set
Actual Time 7:47 AM CEST 6:30 PM CEST
Civil Twilight 7:18 AM CEST 6:58 PM CEST
Nautical Twilight 6:46 AM CEST 7:31 PM CEST
Astronomical Twilight 6:13 AM CEST 8:03 PM CEST
Moon 8:10 AM CEST 6:58 PM CEST
Length of Visible Light 11h 39m
Length of Day
10h 42m
Tomorrow will be 2m 36s shorter.
New Moon, 0% of the Moon is Illuminated
Today
New Moon
Oct 30
First Quarter
Nov 6
Full
Nov 14
Last Quarter
Nov 22
New

Yesterday's Extremes

Country Highs Country Lows

Community

WunderPhotos

Upload Photos

1,764,510 photos uploaded!

WunderBlogs® & News

Nearby

Snow Depth

Not available.

Earthquake Activity

City Distance Mag. Time & Date
No recent earthquake activity has been reported nearby.
Minimum magnitude displayed is 2.5.

Coastal Water Temperatures

Place Temperature
No Stations Reporting

Nearby Weather Stations